sensor_id;sensor_type;location;lat;lon;timestamp;P1;durP1;ratioP1;P2;durP2;ratioP2
52480;SDS011;38393;52.404;13.532;2024-01-15T00:01:02;2.73;;;1.70;;
52480;SDS011;38393;52.404;13.532;2024-01-15T00:03:28;1.97;;;1.53;;
52480;SDS011;38393;52.404;13.532;2024-01-15T00:05:53;4.03;;;1.87;;
52480;SDS011;38393;52.404;13.532;2024-01-15T00:08:19;1.37;;;1.07;;
52480;SDS011;38393;52.404;13.532;2024-01-15T00:10:44;7.40;;;1.63;;
52480;SDS011;38393;52.404;13.532;2024-01-15T00:13:10;4.03;;;2.23;;
52480;SDS011;38393;52.404;13.532;2024-01-15T00:15:35;3.63;;;1.53;;
52480;SDS011;38393;52.404;13.532;2024-01-15T00:18:01;2.30;;;1.30;;
52480;SDS011;38393;52.404;13.532;2024-01-15T00:20:26;3.30;;;1.47;;
52480;SDS011;38393;52.404;13.532;2024-01-15T00:22:52;8.10;;;1.53;;
52480;SDS011;38393;52.404;13.532;2024-01-15T00:25:17;2.37;;;1.60;;
52480;SDS011;38393;52.404;13.532;2024-01-15T00:27:43;6.23;;;2.50;;
52480;SDS011;38393;52.404;13.532;2024-01-15T00:30:08;1.40;;;1.10;;
52480;SDS011;38393;52.404;13.532;2024-01-15T00:32:34;2.80;;;1.33;;
52480;SDS011;38393;52.404;13.532;2024-01-15T00:34:59;3.00;;;1.73;;
52480;SDS011;38393;52.404;13.532;2024-01-15T00:37:25;1.37;;;1.27;;
52480;SDS011;38393;52.404;13.532;2024-01-15T00:39:50;3.83;;;1.57;;
52480;SDS011;38393;52.404;13.532;2024-01-15T00:42:16;1.50;;;1.40;;
52480;SDS011;38393;52.404;13.532;2024-01-15T00:44:42;2.17;;;1.40;;
52480;SDS011;38393;52.404;13.532;2024-01-15T00:47:07;1.57;;;1.43;;
52480;SDS011;38393;52.404;13.532;2024-01-15T00:49:33;1.40;;;1.30;;
52480;SDS011;38393;52.404;13.532;2024-01-15T00:51:58;3.57;;;2.20;;
52480;SDS011;38393;52.404;13.532;2024-01-15T00:54:23;1.93;;;0.97;;
52480;SDS011;38393;52.404;13.532;2024-01-15T00:56:49;1.10;;;1.00;;
52480;SDS011;38393;52.404;13.532;2024-01-15T00:59:14;3.53;;;1.63;;
52480;SDS011;38393;52.404;13.532;2024-01-15T01:01:41;5.00;;;2.63;;
52480;SDS011;38393;52.404;13.532;2024-01-15T01:04:08;1.53;;;1.43;;
52480;SDS011;38393;52.404;13.532;2024-01-15T01:06:34;5.60;;;1.50;;
52480;SDS011;38393;52.404;13.532;2024-01-15T01:08:59;3.10;;;1.80;;
52480;SDS011;38393;52.404;13.532;2024-01-15T01:11:25;5.37;;;0.93;;
52480;SDS011;38393;52.404;13.532;2024-01-15T01:13:51;5.20;;;1.77;;
52480;SDS011;38393;52.404;13.532;2024-01-15T01:16:16;5.30;;;1.77;;
52480;SDS011;38393;52.404;13.532;2024-01-15T01:18:42;1.93;;;1.07;;
52480;SDS011;38393;52.404;13.532;2024-01-15T01:21:07;3.80;;;1.97;;
52480;SDS011;38393;52.404;13.532;2024-01-15T01:23:33;1.67;;;1.27;;
52480;SDS011;38393;52.404;13.532;2024-01-15T01:25:58;5.67;;;1.87;;
52480;SDS011;38393;52.404;13.532;2024-01-15T01:28:24;2.10;;;1.37;;
52480;SDS011;38393;52.404;13.532;2024-01-15T01:30:49;1.60;;;1.03;;
52480;SDS011;38393;52.404;13.532;2024-01-15T01:33:15;2.10;;;1.90;;
52480;SDS011;38393;52.404;13.532;2024-01-15T01:35:40;7.50;;;1.47;;
52480;SDS011;38393;52.404;13.532;2024-01-15T01:38:06;2.03;;;1.30;;
52480;SDS011;38393;52.404;13.532;2024-01-15T01:40:31;1.70;;;1.60;;
52480;SDS011;38393;52.404;13.532;2024-01-15T01:42:57;2.77;;;1.53;;
52480;SDS011;38393;52.404;13.532;2024-01-15T01:45:22;2.67;;;1.43;;
52480;SDS011;38393;52.404;13.532;2024-01-15T01:47:48;3.13;;;1.60;;
52480;SDS011;38393;52.404;13.532;2024-01-15T01:50:13;2.07;;;1.47;;
52480;SDS011;38393;52.404;13.532;2024-01-15T01:52:39;3.27;;;1.87;;
52480;SDS011;38393;52.404;13.532;2024-01-15T01:55:05;2.37;;;1.17;;
52480;SDS011;38393;52.404;13.532;2024-01-15T01:57:31;1.70;;;1.30;;
52480;SDS011;38393;52.404;13.532;2024-01-15T01:59:59;1.67;;;1.33;;
52480;SDS011;38393;52.404;13.532;2024-01-15T02:02:25;2.63;;;1.17;;
52480;SDS011;38393;52.404;13.532;2024-01-15T02:04:51;1.87;;;1.33;;
52480;SDS011;38393;52.404;13.532;2024-01-15T02:07:16;1.90;;;1.67;;
52480;SDS011;38393;52.404;13.532;2024-01-15T02:09:42;1.97;;;1.33;;
52480;SDS011;38393;52.404;13.532;2024-01-15T02:12:09;3.90;;;1.73;;
52480;SDS011;38393;52.404;13.532;2024-01-15T02:14:34;2.70;;;1.40;;
52480;SDS011;38393;52.404;13.532;2024-01-15T02:17:00;1.77;;;1.20;;
52480;SDS011;38393;52.404;13.532;2024-01-15T02:19:25;2.33;;;1.47;;
52480;SDS011;38393;52.404;13.532;2024-01-15T02:21:51;2.37;;;1.10;;
52480;SDS011;38393;52.404;13.532;2024-01-15T02:24:16;3.57;;;1.30;;
52480;SDS011;38393;52.404;13.532;2024-01-15T02:26:42;0.90;;;0.90;;
52480;SDS011;38393;52.404;13.532;2024-01-15T02:29:08;2.67;;;1.37;;
52480;SDS011;38393;52.404;13.532;2024-01-15T02:31:34;2.80;;;1.43;;
52480;SDS011;38393;52.404;13.532;2024-01-15T02:34:01;3.13;;;1.73;;
52480;SDS011;38393;52.404;13.532;2024-01-15T02:36:26;6.33;;;1.23;;
52480;SDS011;38393;52.404;13.532;2024-01-15T02:38:52;6.87;;;1.67;;
52480;SDS011;38393;52.404;13.532;2024-01-15T02:41:17;2.30;;;1.63;;
52480;SDS011;38393;52.404;13.532;2024-01-15T02:43:42;1.57;;;0.93;;
52480;SDS011;38393;52.404;13.532;2024-01-15T02:46:08;2.03;;;1.27;;
52480;SDS011;38393;52.404;13.532;2024-01-15T02:48:33;1.40;;;0.87;;
52480;SDS011;38393;52.404;13.532;2024-01-15T02:51:02;2.87;;;1.53;;
52480;SDS011;38393;52.404;13.532;2024-01-15T02:53:27;1.40;;;1.17;;
52480;SDS011;38393;52.404;13.532;2024-01-15T02:55:53;1.60;;;1.20;;
52480;SDS011;38393;52.404;13.532;2024-01-15T02:58:18;2.33;;;1.03;;
52480;SDS011;38393;52.404;13.532;2024-01-15T03:00:44;1.97;;;1.00;;
52480;SDS011;38393;52.404;13.532;2024-01-15T03:03:09;1.10;;;1.00;;
52480;SDS011;38393;52.404;13.532;2024-01-15T03:05:35;2.80;;;1.33;;
52480;SDS011;38393;52.404;13.532;2024-01-15T03:08:00;1.00;;;0.83;;
52480;SDS011;38393;52.404;13.532;2024-01-15T03:10:26;2.13;;;1.70;;
52480;SDS011;38393;52.404;13.532;2024-01-15T03:12:51;2.47;;;1.40;;
52480;SDS011;38393;52.404;13.532;2024-01-15T03:15:17;2.10;;;1.00;;
52480;SDS011;38393;52.404;13.532;2024-01-15T03:17:43;1.27;;;0.93;;
52480;SDS011;38393;52.404;13.532;2024-01-15T03:20:09;3.63;;;1.60;;
52480;SDS011;38393;52.404;13.532;2024-01-15T03:22:35;4.13;;;1.43;;
52480;SDS011;38393;52.404;13.532;2024-01-15T03:25:00;1.43;;;1.20;;
52480;SDS011;38393;52.404;13.532;2024-01-15T03:27:25;1.73;;;1.10;;
52480;SDS011;38393;52.404;13.532;2024-01-15T03:29:51;2.73;;;1.80;;
52480;SDS011;38393;52.404;13.532;2024-01-15T03:32:16;1.73;;;0.97;;
52480;SDS011;38393;52.404;13.532;2024-01-15T03:34:42;1.90;;;1.03;;
52480;SDS011;38393;52.404;13.532;2024-01-15T03:37:08;1.87;;;1.20;;
52480;SDS011;38393;52.404;13.532;2024-01-15T03:39:33;1.50;;;0.87;;
52480;SDS011;38393;52.404;13.532;2024-01-15T03:41:58;2.20;;;1.13;;
52480;SDS011;38393;52.404;13.532;2024-01-15T03:44:24;2.10;;;1.17;;
52480;SDS011;38393;52.404;13.532;2024-01-15T03:46:50;2.20;;;1.30;;
52480;SDS011;38393;52.404;13.532;2024-01-15T03:49:15;2.47;;;1.43;;
52480;SDS011;38393;52.404;13.532;2024-01-15T03:51:41;0.97;;;0.90;;
52480;SDS011;38393;52.404;13.532;2024-01-15T03:54:06;5.97;;;1.23;;
52480;SDS011;38393;52.404;13.532;2024-01-15T03:56:31;0.50;;;0.50;;
52480;SDS011;38393;52.404;13.532;2024-01-15T03:58:57;3.23;;;0.87;;
52480;SDS011;38393;52.404;13.532;2024-01-15T04:01:22;4.23;;;0.93;;
52480;SDS011;38393;52.404;13.532;2024-01-15T04:03:48;2.27;;;1.00;;
52480;SDS011;38393;52.404;13.532;2024-01-15T04:06:13;1.00;;;0.93;;
52480;SDS011;38393;52.404;13.532;2024-01-15T04:08:39;2.03;;;1.23;;
52480;SDS011;38393;52.404;13.532;2024-01-15T04:11:04;1.17;;;1.03;;
52480;SDS011;38393;52.404;13.532;2024-01-15T04:13:32;1.30;;;0.83;;
52480;SDS011;38393;52.404;13.532;2024-01-15T04:15:57;2.93;;;1.60;;
52480;SDS011;38393;52.404;13.532;2024-01-15T04:18:23;1.77;;;1.13;;
52480;SDS011;38393;52.404;13.532;2024-01-15T04:20:48;0.50;;;0.50;;
52480;SDS011;38393;52.404;13.532;2024-01-15T04:23:14;1.13;;;1.03;;
52480;SDS011;38393;52.404;13.532;2024-01-15T04:25:39;1.47;;;1.37;;
52480;SDS011;38393;52.404;13.532;2024-01-15T04:28:07;0.70;;;0.70;;
52480;SDS011;38393;52.404;13.532;2024-01-15T04:30:33;0.70;;;0.57;;
52480;SDS011;38393;52.404;13.532;2024-01-15T04:32:59;0.93;;;0.80;;
52480;SDS011;38393;52.404;13.532;2024-01-15T04:35:24;1.57;;;1.10;;
52480;SDS011;38393;52.404;13.532;2024-01-15T04:37:50;1.03;;;0.40;;
52480;SDS011;38393;52.404;13.532;2024-01-15T04:40:15;1.13;;;0.80;;
52480;SDS011;38393;52.404;13.532;2024-01-15T04:42:41;1.30;;;1.20;;
52480;SDS011;38393;52.404;13.532;2024-01-15T04:45:06;1.77;;;1.30;;
52480;SDS011;38393;52.404;13.532;2024-01-15T04:47:32;2.13;;;0.90;;
52480;SDS011;38393;52.404;13.532;2024-01-15T04:49:57;1.93;;;1.00;;
52480;SDS011;38393;52.404;13.532;2024-01-15T04:52:23;0.60;;;0.60;;
52480;SDS011;38393;52.404;13.532;2024-01-15T04:54:48;1.97;;;1.07;;
52480;SDS011;38393;52.404;13.532;2024-01-15T04:57:14;2.07;;;1.23;;
52480;SDS011;38393;52.404;13.532;2024-01-15T04:59:40;0.47;;;0.47;;
52480;SDS011;38393;52.404;13.532;2024-01-15T05:02:05;0.70;;;0.70;;
52480;SDS011;38393;52.404;13.532;2024-01-15T05:04:31;2.23;;;1.20;;
52480;SDS011;38393;52.404;13.532;2024-01-15T05:06:57;2.03;;;0.70;;
52480;SDS011;38393;52.404;13.532;2024-01-15T05:09:23;0.97;;;0.77;;
52480;SDS011;38393;52.404;13.532;2024-01-15T05:11:48;1.13;;;0.70;;
52480;SDS011;38393;52.404;13.532;2024-01-15T05:14:14;4.87;;;1.70;;
52480;SDS011;38393;52.404;13.532;2024-01-15T05:16:39;3.20;;;1.23;;
52480;SDS011;38393;52.404;13.532;2024-01-15T05:19:11;1.10;;;1.00;;
52480;SDS011;38393;52.404;13.532;2024-01-15T05:21:36;1.57;;;0.63;;
52480;SDS011;38393;52.404;13.532;2024-01-15T05:24:02;0.60;;;0.60;;
52480;SDS011;38393;52.404;13.532;2024-01-15T05:26:27;1.83;;;1.67;;
52480;SDS011;38393;52.404;13.532;2024-01-15T05:28:53;1.00;;;0.83;;
52480;SDS011;38393;52.404;13.532;2024-01-15T05:31:18;0.50;;;0.50;;
52480;SDS011;38393;52.404;13.532;2024-01-15T05:33:44;1.60;;;1.07;;
52480;SDS011;38393;52.404;13.532;2024-01-15T05:36:09;0.90;;;0.70;;
52480;SDS011;38393;52.404;13.532;2024-01-15T05:38:35;0.60;;;0.60;;
52480;SDS011;38393;52.404;13.532;2024-01-15T05:41:00;0.80;;;0.80;;
52480;SDS011;38393;52.404;13.532;2024-01-15T05:43:26;1.70;;;0.80;;
52480;SDS011;38393;52.404;13.532;2024-01-15T05:45:51;0.50;;;0.50;;
52480;SDS011;38393;52.404;13.532;2024-01-15T05:48:17;2.13;;;1.30;;
52480;SDS011;38393;52.404;13.532;2024-01-15T05:50:42;1.00;;;0.90;;
52480;SDS011;38393;52.404;13.532;2024-01-15T05:53:08;1.23;;;1.10;;
52480;SDS011;38393;52.404;13.532;2024-01-15T05:55:34;0.80;;;0.67;;
52480;SDS011;38393;52.404;13.532;2024-01-15T05:58:01;0.50;;;0.40;;
52480;SDS011;38393;52.404;13.532;2024-01-15T06:00:26;0.70;;;0.53;;
52480;SDS011;38393;52.404;13.532;2024-01-15T06:02:52;1.00;;;0.93;;
52480;SDS011;38393;52.404;13.532;2024-01-15T06:05:17;3.03;;;1.10;;
52480;SDS011;38393;52.404;13.532;2024-01-15T06:07:43;1.03;;;0.63;;
52480;SDS011;38393;52.404;13.532;2024-01-15T06:10:08;2.97;;;0.77;;
52480;SDS011;38393;52.404;13.532;2024-01-15T06:12:34;5.70;;;1.17;;
52480;SDS011;38393;52.404;13.532;2024-01-15T06:14:59;0.93;;;0.83;;
52480;SDS011;38393;52.404;13.532;2024-01-15T06:17:25;0.67;;;0.67;;
52480;SDS011;38393;52.404;13.532;2024-01-15T06:19:50;0.80;;;0.73;;
52480;SDS011;38393;52.404;13.532;2024-01-15T06:22:16;1.00;;;0.80;;
52480;SDS011;38393;52.404;13.532;2024-01-15T06:24:41;1.00;;;0.83;;
52480;SDS011;38393;52.404;13.532;2024-01-15T06:27:07;0.50;;;0.50;;
52480;SDS011;38393;52.404;13.532;2024-01-15T06:29:32;1.50;;;0.70;;
52480;SDS011;38393;52.404;13.532;2024-01-15T06:31:58;3.57;;;0.83;;
52480;SDS011;38393;52.404;13.532;2024-01-15T06:34:26;0.80;;;0.80;;
52480;SDS011;38393;52.404;13.532;2024-01-15T06:36:51;0.90;;;0.70;;
52480;SDS011;38393;52.404;13.532;2024-01-15T06:39:17;0.53;;;0.53;;
52480;SDS011;38393;52.404;13.532;2024-01-15T06:41:43;0.40;;;0.40;;
52480;SDS011;38393;52.404;13.532;2024-01-15T06:44:11;0.50;;;0.47;;
52480;SDS011;38393;52.404;13.532;2024-01-15T06:46:43;0.40;;;0.40;;
52480;SDS011;38393;52.404;13.532;2024-01-15T06:49:09;0.97;;;0.67;;
52480;SDS011;38393;52.404;13.532;2024-01-15T06:51:35;0.53;;;0.53;;
52480;SDS011;38393;52.404;13.532;2024-01-15T06:54:01;10.73;;;0.70;;
52480;SDS011;38393;52.404;13.532;2024-01-15T06:56:26;0.87;;;0.60;;
52480;SDS011;38393;52.404;13.532;2024-01-15T06:58:52;0.87;;;0.70;;
52480;SDS011;38393;52.404;13.532;2024-01-15T07:01:17;0.40;;;0.40;;
52480;SDS011;38393;52.404;13.532;2024-01-15T07:03:43;0.60;;;0.60;;
52480;SDS011;38393;52.404;13.532;2024-01-15T07:06:08;0.93;;;0.77;;
52480;SDS011;38393;52.404;13.532;2024-01-15T07:08:34;0.40;;;0.40;;
52480;SDS011;38393;52.404;13.532;2024-01-15T07:10:59;1.03;;;0.57;;
52480;SDS011;38393;52.404;13.532;2024-01-15T07:13:28;0.40;;;0.40;;
52480;SDS011;38393;52.404;13.532;2024-01-15T07:15:53;0.50;;;0.50;;
52480;SDS011;38393;52.404;13.532;2024-01-15T07:18:19;1.53;;;1.00;;
52480;SDS011;38393;52.404;13.532;2024-01-15T07:20:44;0.40;;;0.40;;
52480;SDS011;38393;52.404;13.532;2024-01-15T07:23:10;2.00;;;1.03;;
52480;SDS011;38393;52.404;13.532;2024-01-15T07:25:35;1.20;;;1.10;;
52480;SDS011;38393;52.404;13.532;2024-01-15T07:28:01;0.60;;;0.40;;
52480;SDS011;38393;52.404;13.532;2024-01-15T07:30:28;1.30;;;0.80;;
52480;SDS011;38393;52.404;13.532;2024-01-15T07:32:54;0.63;;;0.63;;
52480;SDS011;38393;52.404;13.532;2024-01-15T07:35:19;1.13;;;0.67;;
52480;SDS011;38393;52.404;13.532;2024-01-15T07:37:45;0.50;;;0.50;;
52480;SDS011;38393;52.404;13.532;2024-01-15T07:40:11;0.40;;;0.40;;
52480;SDS011;38393;52.404;13.532;2024-01-15T07:42:37;0.57;;;0.47;;
52480;SDS011;38393;52.404;13.532;2024-01-15T07:45:03;1.70;;;0.50;;
52480;SDS011;38393;52.404;13.532;2024-01-15T07:47:29;0.40;;;0.40;;
52480;SDS011;38393;52.404;13.532;2024-01-15T07:49:54;0.40;;;0.40;;
52480;SDS011;38393;52.404;13.532;2024-01-15T07:52:20;3.40;;;0.67;;
52480;SDS011;38393;52.404;13.532;2024-01-15T07:54:46;2.63;;;0.80;;
52480;SDS011;38393;52.404;13.532;2024-01-15T07:57:11;0.70;;;0.70;;
52480;SDS011;38393;52.404;13.532;2024-01-15T07:59:38;4.83;;;0.63;;
52480;SDS011;38393;52.404;13.532;2024-01-15T08:02:03;2.63;;;1.13;;
52480;SDS011;38393;52.404;13.532;2024-01-15T08:04:29;0.53;;;0.53;;
52480;SDS011;38393;52.404;13.532;2024-01-15T08:06:54;0.93;;;0.50;;
52480;SDS011;38393;52.404;13.532;2024-01-15T08:09:20;0.70;;;0.70;;
52480;SDS011;38393;52.404;13.532;2024-01-15T08:11:45;0.40;;;0.40;;
52480;SDS011;38393;52.404;13.532;2024-01-15T08:14:11;0.40;;;0.40;;
52480;SDS011;38393;52.404;13.532;2024-01-15T08:16:38;1.10;;;0.50;;
52480;SDS011;38393;52.404;13.532;2024-01-15T08:19:03;9.83;;;0.80;;
52480;SDS011;38393;52.404;13.532;2024-01-15T08:21:30;0.60;;;0.60;;
52480;SDS011;38393;52.404;13.532;2024-01-15T08:23:56;8.77;;;0.73;;
52480;SDS011;38393;52.404;13.532;2024-01-15T08:26:23;0.87;;;0.67;;
52480;SDS011;38393;52.404;13.532;2024-01-15T08:28:48;0.50;;;0.50;;
52480;SDS011;38393;52.404;13.532;2024-01-15T08:31:14;0.60;;;0.60;;
52480;SDS011;38393;52.404;13.532;2024-01-15T08:33:39;1.27;;;0.60;;
52480;SDS011;38393;52.404;13.532;2024-01-15T08:36:05;0.40;;;0.40;;
52480;SDS011;38393;52.404;13.532;2024-01-15T08:38:30;1.80;;;0.50;;
52480;SDS011;38393;52.404;13.532;2024-01-15T08:40:56;2.57;;;0.80;;
52480;SDS011;38393;52.404;13.532;2024-01-15T08:43:24;0.80;;;0.50;;
52480;SDS011;38393;52.404;13.532;2024-01-15T08:45:49;0.70;;;0.70;;
52480;SDS011;38393;52.404;13.532;2024-01-15T08:48:15;0.50;;;0.50;;
52480;SDS011;38393;52.404;13.532;2024-01-15T08:50:42;1.93;;;0.60;;
52480;SDS011;38393;52.404;13.532;2024-01-15T08:53:07;0.40;;;0.40;;
52480;SDS011;38393;52.404;13.532;2024-01-15T08:55:33;1.13;;;0.60;;
52480;SDS011;38393;52.404;13.532;2024-01-15T08:57:58;1.10;;;1.07;;
52480;SDS011;38393;52.404;13.532;2024-01-15T09:00:24;0.30;;;0.30;;
52480;SDS011;38393;52.404;13.532;2024-01-15T09:02:49;0.83;;;0.77;;
52480;SDS011;38393;52.404;13.532;2024-01-15T09:05:15;0.40;;;0.40;;
52480;SDS011;38393;52.404;13.532;2024-01-15T09:07:40;0.30;;;0.30;;
52480;SDS011;38393;52.404;13.532;2024-01-15T09:10:06;7.43;;;0.50;;
52480;SDS011;38393;52.404;13.532;2024-01-15T09:12:32;0.60;;;0.43;;
52480;SDS011;38393;52.404;13.532;2024-01-15T09:14:57;0.90;;;0.83;;
52480;SDS011;38393;52.404;13.532;2024-01-15T09:17:22;0.80;;;0.60;;
52480;SDS011;38393;52.404;13.532;2024-01-15T09:19:48;0.40;;;0.40;;
52480;SDS011;38393;52.404;13.532;2024-01-15T09:22:14;0.30;;;0.30;;
52480;SDS011;38393;52.404;13.532;2024-01-15T09:24:43;0.50;;;0.50;;
52480;SDS011;38393;52.404;13.532;2024-01-15T09:27:09;1.23;;;0.60;;
52480;SDS011;38393;52.404;13.532;2024-01-15T09:29:34;0.97;;;0.50;;
52480;SDS011;38393;52.404;13.532;2024-01-15T09:32:02;5.50;;;1.07;;
52480;SDS011;38393;52.404;13.532;2024-01-15T09:34:29;0.30;;;0.30;;
52480;SDS011;38393;52.404;13.532;2024-01-15T09:36:54;0.50;;;0.43;;
52480;SDS011;38393;52.404;13.532;2024-01-15T09:39:20;0.40;;;0.40;;
52480;SDS011;38393;52.404;13.532;2024-01-15T09:41:46;1.13;;;0.57;;
52480;SDS011;38393;52.404;13.532;2024-01-15T09:44:13;0.80;;;0.40;;
52480;SDS011;38393;52.404;13.532;2024-01-15T09:46:39;0.93;;;0.70;;
52480;SDS011;38393;52.404;13.532;2024-01-15T09:49:06;0.30;;;0.30;;
52480;SDS011;38393;52.404;13.532;2024-01-15T09:51:31;1.03;;;0.60;;
52480;SDS011;38393;52.404;13.532;2024-01-15T09:53:57;0.40;;;0.40;;
52480;SDS011;38393;52.404;13.532;2024-01-15T09:56:23;1.13;;;0.70;;
52480;SDS011;38393;52.404;13.532;2024-01-15T09:58:49;1.13;;;0.60;;
52480;SDS011;38393;52.404;13.532;2024-01-15T10:01:17;0.63;;;0.50;;
52480;SDS011;38393;52.404;13.532;2024-01-15T10:03:45;1.17;;;0.90;;
52480;SDS011;38393;52.404;13.532;2024-01-15T10:06:11;0.50;;;0.50;;
52480;SDS011;38393;52.404;13.532;2024-01-15T10:08:42;2.53;;;0.70;;
52480;SDS011;38393;52.404;13.532;2024-01-15T10:11:12;9.53;;;0.73;;
52480;SDS011;38393;52.404;13.532;2024-01-15T10:13:37;0.50;;;0.47;;
52480;SDS011;38393;52.404;13.532;2024-01-15T10:16:04;0.30;;;0.30;;
52480;SDS011;38393;52.404;13.532;2024-01-15T10:18:30;0.93;;;0.73;;
52480;SDS011;38393;52.404;13.532;2024-01-15T10:20:56;0.50;;;0.50;;
52480;SDS011;38393;52.404;13.532;2024-01-15T10:23:22;0.30;;;0.30;;
52480;SDS011;38393;52.404;13.532;2024-01-15T10:25:48;0.70;;;0.63;;
52480;SDS011;38393;52.404;13.532;2024-01-15T10:28:14;0.47;;;0.47;;
52480;SDS011;38393;52.404;13.532;2024-01-15T10:30:39;0.53;;;0.47;;
52480;SDS011;38393;52.404;13.532;2024-01-15T10:33:05;0.77;;;0.57;;
52480;SDS011;38393;52.404;13.532;2024-01-15T10:35:31;0.60;;;0.60;;
52480;SDS011;38393;52.404;13.532;2024-01-15T10:37:58;0.90;;;0.60;;
52480;SDS011;38393;52.404;13.532;2024-01-15T10:40:24;0.40;;;0.40;;
52480;SDS011;38393;52.404;13.532;2024-01-15T10:42:49;1.27;;;0.60;;
52480;SDS011;38393;52.404;13.532;2024-01-15T10:45:15;0.50;;;0.50;;
52480;SDS011;38393;52.404;13.532;2024-01-15T10:47:42;1.13;;;0.63;;
52480;SDS011;38393;52.404;13.532;2024-01-15T10:50:08;0.40;;;0.40;;
52480;SDS011;38393;52.404;13.532;2024-01-15T10:52:35;0.93;;;0.50;;
52480;SDS011;38393;52.404;13.532;2024-01-15T10:55:10;0.60;;;0.40;;
52480;SDS011;38393;52.404;13.532;2024-01-15T10:57:36;0.30;;;0.30;;
52480;SDS011;38393;52.404;13.532;2024-01-15T11:00:03;1.53;;;0.60;;
52480;SDS011;38393;52.404;13.532;2024-01-15T11:02:30;0.40;;;0.40;;
52480;SDS011;38393;52.404;13.532;2024-01-15T11:04:58;0.37;;;0.37;;
52480;SDS011;38393;52.404;13.532;2024-01-15T11:07:24;0.30;;;0.30;;
52480;SDS011;38393;52.404;13.532;2024-01-15T11:09:51;6.27;;;0.90;;
52480;SDS011;38393;52.404;13.532;2024-01-15T11:12:16;1.27;;;0.83;;
52480;SDS011;38393;52.404;13.532;2024-01-15T11:14:46;1.13;;;0.47;;
52480;SDS011;38393;52.404;13.532;2024-01-15T11:17:12;0.30;;;0.30;;
52480;SDS011;38393;52.404;13.532;2024-01-15T11:19:43;0.47;;;0.47;;
52480;SDS011;38393;52.404;13.532;2024-01-15T11:22:10;0.40;;;0.40;;
52480;SDS011;38393;52.404;13.532;2024-01-15T11:24:56;1.17;;;0.80;;
52480;SDS011;38393;52.404;13.532;2024-01-15T11:27:41;2.50;;;0.67;;
52480;SDS011;38393;52.404;13.532;2024-01-15T11:30:08;1.07;;;0.67;;
52480;SDS011;38393;52.404;13.532;2024-01-15T11:32:35;0.93;;;0.50;;
52480;SDS011;38393;52.404;13.532;2024-01-15T11:35:01;0.30;;;0.30;;
52480;SDS011;38393;52.404;13.532;2024-01-15T11:37:28;0.30;;;0.30;;
52480;SDS011;38393;52.404;13.532;2024-01-15T11:40:14;0.80;;;0.63;;
52480;SDS011;38393;52.404;13.532;2024-01-15T11:42:46;0.40;;;0.40;;
52480;SDS011;38393;52.404;13.532;2024-01-15T11:45:13;0.83;;;0.50;;
52480;SDS011;38393;52.404;13.532;2024-01-15T11:50:41;0.40;;;0.40;;
52480;SDS011;38393;52.404;13.532;2024-01-15T11:53:11;0.60;;;0.40;;
52480;SDS011;38393;52.404;13.532;2024-01-15T11:55:39;0.50;;;0.40;;
52480;SDS011;38393;52.404;13.532;2024-01-15T11:58:09;1.00;;;0.50;;
52480;SDS011;38393;52.404;13.532;2024-01-15T12:00:39;0.40;;;0.33;;
52480;SDS011;38393;52.404;13.532;2024-01-15T12:03:12;0.70;;;0.53;;
52480;SDS011;38393;52.404;13.532;2024-01-15T12:05:37;2.50;;;0.57;;
52480;SDS011;38393;52.404;13.532;2024-01-15T12:08:03;1.07;;;0.80;;
52480;SDS011;38393;52.404;13.532;2024-01-15T12:10:35;0.70;;;0.60;;
52480;SDS011;38393;52.404;13.532;2024-01-15T12:15:30;0.40;;;0.37;;
52480;SDS011;38393;52.404;13.532;2024-01-15T12:17:57;0.70;;;0.53;;
52480;SDS011;38393;52.404;13.532;2024-01-15T12:20:24;0.40;;;0.40;;
52480;SDS011;38393;52.404;13.532;2024-01-15T12:22:52;0.43;;;0.40;;
52480;SDS011;38393;52.404;13.532;2024-01-15T12:25:20;0.70;;;0.70;;
52480;SDS011;38393;52.404;13.532;2024-01-15T12:27:45;0.40;;;0.40;;
52480;SDS011;38393;52.404;13.532;2024-01-15T12:30:12;0.50;;;0.50;;
52480;SDS011;38393;52.404;13.532;2024-01-15T12:32:39;0.53;;;0.40;;
52480;SDS011;38393;52.404;13.532;2024-01-15T12:35:05;0.40;;;0.40;;
52480;SDS011;38393;52.404;13.532;2024-01-15T12:37:31;0.73;;;0.53;;
52480;SDS011;38393;52.404;13.532;2024-01-15T12:39:58;0.40;;;0.40;;
52480;SDS011;38393;52.404;13.532;2024-01-15T12:42:24;0.40;;;0.37;;
52480;SDS011;38393;52.404;13.532;2024-01-15T12:44:49;0.40;;;0.40;;
52480;SDS011;38393;52.404;13.532;2024-01-15T12:47:14;0.50;;;0.43;;
52480;SDS011;38393;52.404;13.532;2024-01-15T12:49:46;0.67;;;0.50;;
52480;SDS011;38393;52.404;13.532;2024-01-15T12:52:13;0.40;;;0.40;;
52480;SDS011;38393;52.404;13.532;2024-01-15T12:54:38;0.30;;;0.30;;
52480;SDS011;38393;52.404;13.532;2024-01-15T12:57:03;0.50;;;0.40;;
52480;SDS011;38393;52.404;13.532;2024-01-15T12:59:29;0.40;;;0.40;;
52480;SDS011;38393;52.404;13.532;2024-01-15T13:01:54;0.37;;;0.37;;
52480;SDS011;38393;52.404;13.532;2024-01-15T13:04:23;0.30;;;0.30;;
52480;SDS011;38393;52.404;13.532;2024-01-15T13:06:50;0.40;;;0.40;;
52480;SDS011;38393;52.404;13.532;2024-01-15T13:09:16;0.40;;;0.40;;
52480;SDS011;38393;52.404;13.532;2024-01-15T13:11:42;0.53;;;0.50;;
52480;SDS011;38393;52.404;13.532;2024-01-15T13:14:08;1.17;;;0.50;;
52480;SDS011;38393;52.404;13.532;2024-01-15T13:16:34;0.50;;;0.50;;
52480;SDS011;38393;52.404;13.532;2024-01-15T13:18:59;3.00;;;1.07;;
52480;SDS011;38393;52.404;13.532;2024-01-15T13:21:25;0.60;;;0.60;;
52480;SDS011;38393;52.404;13.532;2024-01-15T13:23:50;1.07;;;0.63;;
52480;SDS011;38393;52.404;13.532;2024-01-15T13:26:16;0.40;;;0.40;;
52480;SDS011;38393;52.404;13.532;2024-01-15T13:28:43;0.50;;;0.50;;
52480;SDS011;38393;52.404;13.532;2024-01-15T13:31:08;0.40;;;0.40;;
52480;SDS011;38393;52.404;13.532;2024-01-15T13:33:34;0.60;;;0.50;;
52480;SDS011;38393;52.404;13.532;2024-01-15T13:35:59;0.43;;;0.43;;
52480;SDS011;38393;52.404;13.532;2024-01-15T13:38:25;0.87;;;0.40;;
52480;SDS011;38393;52.404;13.532;2024-01-15T13:40:51;1.73;;;0.80;;
52480;SDS011;38393;52.404;13.532;2024-01-15T13:43:17;0.93;;;0.50;;
52480;SDS011;38393;52.404;13.532;2024-01-15T13:45:43;0.70;;;0.60;;
52480;SDS011;38393;52.404;13.532;2024-01-15T13:48:08;0.30;;;0.30;;
52480;SDS011;38393;52.404;13.532;2024-01-15T13:50:34;0.40;;;0.40;;
52480;SDS011;38393;52.404;13.532;2024-01-15T13:53:00;0.53;;;0.53;;
52480;SDS011;38393;52.404;13.532;2024-01-15T13:55:27;1.40;;;0.80;;
52480;SDS011;38393;52.404;13.532;2024-01-15T13:57:53;1.03;;;0.73;;
52480;SDS011;38393;52.404;13.532;2024-01-15T14:00:19;1.50;;;0.83;;
52480;SDS011;38393;52.404;13.532;2024-01-15T14:02:45;0.40;;;0.40;;
52480;SDS011;38393;52.404;13.532;2024-01-15T14:05:11;0.60;;;0.50;;
52480;SDS011;38393;52.404;13.532;2024-01-15T14:07:37;0.97;;;0.80;;
52480;SDS011;38393;52.404;13.532;2024-01-15T14:10:04;0.30;;;0.30;;
52480;SDS011;38393;52.404;13.532;2024-01-15T14:12:30;0.43;;;0.30;;
52480;SDS011;38393;52.404;13.532;2024-01-15T14:14:56;0.53;;;0.40;;
52480;SDS011;38393;52.404;13.532;2024-01-15T14:17:22;1.10;;;1.00;;
52480;SDS011;38393;52.404;13.532;2024-01-15T14:19:47;0.73;;;0.63;;
52480;SDS011;38393;52.404;13.532;2024-01-15T14:22:13;0.77;;;0.60;;
52480;SDS011;38393;52.404;13.532;2024-01-15T14:24:38;0.63;;;0.63;;
52480;SDS011;38393;52.404;13.532;2024-01-15T14:27:04;0.30;;;0.30;;
52480;SDS011;38393;52.404;13.532;2024-01-15T14:29:30;0.60;;;0.60;;
52480;SDS011;38393;52.404;13.532;2024-01-15T14:31:55;2.17;;;1.20;;